Time;durP1;ratioP1;P1;durP2;ratioP2;P2;SDS_P1;SDS_P2;PMS_P1;PMS_P2;Temp;Humidity;BMP_temperature;BMP_pressure;BME280_temperature;BME280_humidity;BME280_pressure;Samples;Min_cycle;Max_cycle;Signal;HPM_P1;HPM_P2
2022/03/06 00:01:39;;;;;;;33.00;20.75;;;;;;;-0.05;nan;102370.69;5054467;28;20123;-50
2022/03/06 00:04:04;;;;;;;34.97;21.02;;;;;;;-0.32;nan;102329.19;5072355;28;20102;-53
2022/03/06 00:06:29;;;;;;;30.92;20.20;;;;;;;-0.36;nan;102337.72;5054379;28;20514;-50
2022/03/06 00:08:55;;;;;;;31.00;21.83;;;;;;;-0.06;nan;102403.47;5072517;28;20078;-53
2022/03/06 00:11:20;;;;;;;32.30;20.83;;;;;;;-0.12;nan;102402.38;5072268;28;20036;-49
2022/03/06 00:13:45;;;;;;;32.13;20.52;;;;;;;-0.22;nan;102377.00;5072554;28;20058;-56
2022/03/06 00:16:11;;;;;;;33.42;21.25;;;;;;;-0.12;nan;102402.38;5072298;28;20447;-56
2022/03/06 00:18:37;;;;;;;36.35;21.48;;;;;;;-0.15;nan;102397.09;5072436;28;20056;-53
2022/03/06 00:21:03;;;;;;;33.85;20.58;;;;;;;-0.20;nan;102388.28;5072289;28;20064;-51
2022/03/06 00:23:28;;;;;;;35.72;20.52;;;;;;;-0.22;nan;102395.09;5052484;28;20147;-52
2022/03/06 00:25:54;;;;;;;31.08;19.90;;;;;;;-0.16;nan;102395.34;5068373;28;20496;-52
2022/03/06 00:28:19;;;;;;;30.17;20.55;;;;;;;-0.45;nan;102349.41;5072070;28;20476;-57
2022/03/06 00:30:46;;;;;;;36.60;21.00;;;;;;;-0.14;nan;102414.38;5038811;28;20033;-56
2022/03/06 00:33:12;;;;;;;38.90;20.75;;;;;;;-0.35;nan;102370.50;5050701;28;20037;-55
2022/03/06 00:35:37;;;;;;;31.63;20.48;;;;;;;-0.19;nan;102402.97;5064385;28;20059;-54
2022/03/06 00:38:03;;;;;;;32.88;20.38;;;;;;;-0.25;nan;102403.66;5071087;28;20036;-56
2022/03/06 00:40:29;;;;;;;30.63;20.85;;;;;;;-0.27;nan;102409.59;5069889;28;20020;-53
2022/03/06 00:42:54;;;;;;;34.15;21.80;;;;;;;-0.28;nan;102416.47;5070249;28;20641;-53
2022/03/06 00:45:20;;;;;;;33.70;21.42;;;;;;;-0.33;nan;102405.09;5074815;28;20560;-52
2022/03/06 00:47:46;;;;;;;30.48;20.65;;;;;;;-0.31;nan;102407.72;5076252;28;20039;-54
2022/03/06 00:50:11;;;;;;;33.20;20.10;;;;;;;-0.36;nan;102409.25;5076078;28;20066;-55
2022/03/06 00:52:39;;;;;;;32.38;21.20;;;;;;;-0.84;nan;102341.94;5076235;28;20036;-56
2022/03/06 00:55:04;;;;;;;32.97;20.73;;;;;;;-0.45;nan;102419.25;5058738;28;20024;-54
2022/03/06 00:57:30;;;;;;;34.60;20.90;;;;;;;-0.40;nan;102428.94;5058428;28;20084;-56
2022/03/06 00:59:55;;;;;;;35.58;22.42;;;;;;;-0.59;nan;102396.38;5076002;28;20060;-53
2022/03/06 01:02:20;;;;;;;33.70;19.90;;;;;;;-0.52;nan;102415.56;5075899;28;20047;-56
2022/03/06 01:04:46;;;;;;;35.40;20.98;;;;;;;-0.44;nan;102433.97;5075708;28;20036;-50
2022/03/06 01:07:11;;;;;;;33.67;20.58;;;;;;;-0.54;nan;102414.63;5075735;28;20025;-58
2022/03/06 01:09:37;;;;;;;30.38;19.70;;;;;;;-0.46;nan;102445.94;5057811;28;20042;-57
2022/03/06 01:12:02;;;;;;;33.67;21.30;;;;;;;-0.50;nan;102437.22;5075765;28;20032;-51
2022/03/06 01:14:29;;;;;;;33.80;20.17;;;;;;;-0.62;nan;102416.94;5057647;28;20052;-53
2022/03/06 01:16:54;;;;;;;32.65;20.65;;;;;;;-0.59;nan;102437.75;5075410;28;20066;-55
2022/03/06 01:19:20;;;;;;;27.17;18.83;;;;;;;-0.95;nan;102379.44;5075394;28;20056;-48
2022/03/06 01:21:45;;;;;;;33.83;21.63;;;;;;;-1.02;nan;102367.09;5075500;28;20036;-51
2022/03/06 01:24:11;;;;;;;31.25;21.08;;;;;;;-0.99;nan;102377.56;5075293;28;20086;-51
2022/03/06 01:26:36;;;;;;;37.10;20.77;;;;;;;-0.67;nan;102431.38;5075515;28;20123;-52
2022/03/06 01:29:02;;;;;;;36.22;21.10;;;;;;;-0.66;nan;102437.44;5075470;28;20106;-53
2022/03/06 01:31:27;;;;;;;37.17;21.80;;;;;;;-0.59;nan;102448.09;5057420;28;20448;-53
2022/03/06 01:33:53;;;;;;;33.13;21.55;;;;;;;-0.62;nan;102447.97;5075315;28;20537;-55
2022/03/06 01:36:18;;;;;;;34.15;22.33;;;;;;;-1.03;nan;102372.22;5057414;28;20040;-58
2022/03/06 01:38:43;;;;;;;33.45;22.75;;;;;;;-0.59;nan;102476.53;5075352;28;20033;-52
2022/03/06 01:41:09;;;;;;;35.83;22.67;;;;;;;-0.55;nan;102453.38;5075024;28;20036;-56
2022/03/06 01:43:35;;;;;;;35.67;24.30;;;;;;;-0.68;nan;102432.22;5057208;28;20033;-55
2022/03/06 01:46:00;;;;;;;35.35;23.48;;;;;;;-0.50;nan;102460.50;5057345;28;20032;-52
2022/03/06 01:48:26;;;;;;;39.70;24.23;;;;;;;-0.52;nan;102463.81;5075034;28;20120;-56
2022/03/06 01:50:51;;;;;;;39.90;24.27;;;;;;;-0.48;nan;102465.72;5075369;28;20036;-51
2022/03/06 01:53:16;;;;;;;32.38;22.23;;;;;;;-0.50;nan;102467.38;5057038;28;20041;-55
2022/03/06 01:55:43;;;;;;;33.83;22.48;;;;;;;-0.84;nan;102414.34;5057055;28;20094;-53
2022/03/06 01:58:10;;;;;;;36.20;23.90;;;;;;;-0.63;nan;102455.66;5075092;28;20036;-54
2022/03/06 02:00:38;;;;;;;33.58;21.95;;;;;;;-1.03;nan;102380.84;5056845;28;20036;-52
2022/03/06 02:03:05;;;;;;;39.38;25.52;;;;;;;-0.55;nan;102456.81;5074527;28;20032;-51
2022/03/06 02:05:30;;;;;;;32.78;22.58;;;;;;;-0.53;nan;102475.00;5074889;28;20544;-55
2022/03/06 02:07:56;;;;;;;40.95;26.80;;;;;;;-0.88;nan;102399.56;5057076;28;20103;-56
2022/03/06 02:10:21;;;;;;;40.95;25.77;;;;;;;-0.42;nan;102468.53;5074772;28;20028;-55
2022/03/06 02:12:48;;;;;;;40.58;26.15;;;;;;;-0.36;nan;102466.19;5056515;28;20058;-53
2022/03/06 02:15:15;;;;;;;39.20;25.67;;;;;;;-0.33;nan;102472.34;5056666;28;20111;-53
2022/03/06 02:17:41;;;;;;;37.00;25.58;;;;;;;-0.23;nan;102455.44;5074401;28;20041;-50
2022/03/06 02:20:17;;;;;;;35.72;24.88;;;;;;;-0.60;nan;102394.59;5074708;28;20033;-52
2022/03/06 02:22:46;;;;;;;39.53;26.95;;;;;;;-0.13;nan;102457.56;5056674;28;20029;-55
2022/03/06 02:25:16;;;;;;;35.67;25.83;;;;;;;-0.09;nan;102456.84;5074310;28;20074;-58
2022/03/06 02:27:42;;;;;;;36.83;26.48;;;;;;;-0.04;nan;102453.59;5056334;28;20051;-52
2022/03/06 02:30:09;;;;;;;38.33;26.95;;;;;;;-0.22;nan;102408.94;5056170;28;20040;-56
2022/03/06 02:32:35;;;;;;;40.47;28.00;;;;;;;-0.28;nan;102390.59;5074277;28;20097;-56
2022/03/06 02:35:00;;;;;;;40.20;28.35;;;;;;;-0.27;nan;102379.44;5074357;28;20472;-56
2022/03/06 02:37:26;;;;;;;40.08;26.85;;;;;;;0.19;nan;102458.72;5074143;28;20036;-55
2022/03/06 02:39:51;;;;;;;38.28;27.08;;;;;;;0.22;nan;102456.22;5074109;28;20036;-55
2022/03/06 02:42:30;;;;;;;35.72;26.25;;;;;;;0.26;nan;102465.88;5056024;28;20041;-53
2022/03/06 02:44:58;;;;;;;35.35;26.58;;;;;;;0.16;nan;102459.50;5056289;28;20064;-52
2022/03/06 02:47:23;;;;;;;42.05;29.17;;;;;;;0.27;nan;102463.34;5056191;28;20036;-55
2022/03/06 02:49:49;;;;;;;41.75;28.85;;;;;;;0.04;nan;102407.28;5074111;28;20040;-52
2022/03/06 02:52:14;;;;;;;40.35;28.25;;;;;;;0.28;nan;102457.34;5073772;28;20204;-55
2022/03/06 02:54:40;;;;;;;37.50;27.95;;;;;;;0.25;nan;102440.81;5073723;28;20187;-53
2022/03/06 02:57:07;;;;;;;37.63;27.35;;;;;;;0.38;nan;102456.81;5039156;28;20429;-52
2022/03/06 02:59:32;;;;;;;35.90;26.60;;;;;;;0.36;nan;102452.41;5055877;28;20046;-55
2022/03/06 03:01:58;;;;;;;43.03;28.17;;;;;;;0.44;nan;102466.50;5073626;28;20107;-54
2022/03/06 03:04:23;;;;;;;38.40;28.00;;;;;;;0.24;nan;102429.56;5073570;28;20177;-51
2022/03/06 03:06:50;;;;;;;37.97;28.15;;;;;;;0.01;nan;102404.56;5038536;28;20036;-54
2022/03/06 03:09:19;;;;;;;33.47;27.42;;;;;;;0.41;nan;102475.03;5073581;28;20059;-54
2022/03/06 03:11:45;;;;;;;42.42;28.45;;;;;;;0.38;nan;102480.13;5055819;28;20064;-56
2022/03/06 03:14:10;;;;;;;37.33;27.38;;;;;;;0.36;nan;102476.59;5073155;28;20116;-56
2022/03/06 03:16:35;;;;;;;40.55;28.98;;;;;;;0.36;nan;102486.97;5073292;28;20090;-52
2022/03/06 03:19:01;;;;;;;35.55;28.40;;;;;;;0.21;nan;102446.69;5073213;28;20071;-55
2022/03/06 03:21:26;;;;;;;37.15;28.38;;;;;;;0.08;nan;102440.22;5073368;28;20041;-56
2022/03/06 03:23:51;;;;;;;34.72;27.55;;;;;;;0.29;nan;102469.44;5073345;28;20041;-55
2022/03/06 03:26:17;;;;;;;36.97;27.98;;;;;;;0.34;nan;102492.94;5073083;28;20037;-55
2022/03/06 03:28:42;;;;;;;37.50;29.23;;;;;;;0.01;nan;102443.41;5073240;28;20045;-55
2022/03/06 03:31:07;;;;;;;35.67;28.75;;;;;;;0.16;nan;102479.31;5073164;28;20421;-55
2022/03/06 03:33:33;;;;;;;35.42;29.42;;;;;;;0.19;nan;102488.09;5073051;28;20446;-54
2022/03/06 03:35:58;;;;;;;43.03;29.35;;;;;;;0.24;nan;102496.00;5072984;28;20442;-56
2022/03/06 03:38:23;;;;;;;35.10;28.25;;;;;;;0.23;nan;102496.84;5072553;28;20032;-54
2022/03/06 03:40:49;;;;;;;33.33;27.48;;;;;;;0.15;nan;102499.16;5072641;28;20025;-56
2022/03/06 03:43:14;;;;;;;34.65;27.98;;;;;;;0.14;nan;102496.50;5054847;28;20437;-53
2022/03/06 03:45:39;;;;;;;35.95;28.38;;;;;;;0.06;nan;102497.94;5072935;28;20032;-53
2022/03/06 03:48:05;;;;;;;34.28;28.33;;;;;;;0.04;nan;102494.41;5054953;28;20036;-53
2022/03/06 03:50:30;;;;;;;33.05;26.92;;;;;;;0.00;nan;102494.28;5072706;28;20063;-52
2022/03/06 03:52:55;;;;;;;36.47;27.70;;;;;;;-0.11;nan;102489.53;5072565;28;20045;-50
2022/03/06 03:55:21;;;;;;;30.92;25.85;;;;;;;-0.11;nan;102494.72;5038042;28;20033;-52
2022/03/06 03:57:46;;;;;;;35.13;27.02;;;;;;;-0.35;nan;102465.38;5072420;28;20047;-56
2022/03/06 04:00:11;;;;;;;36.75;28.65;;;;;;;-0.14;nan;102503.25;5054695;28;20036;-51
2022/03/06 04:02:37;;;;;;;31.23;26.60;;;;;;;-0.13;nan;102510.22;5072486;28;20039;-53
2022/03/06 04:05:03;;;;;;;33.55;27.38;;;;;;;-0.17;nan;102497.97;5054441;28;20471;-55
2022/03/06 04:07:29;;;;;;;40.63;27.55;;;;;;;-0.22;nan;102509.84;5072020;28;20538;-55
2022/03/06 04:09:54;;;;;;;34.22;28.35;;;;;;;-0.63;nan;102427.22;5072249;28;20029;-55
2022/03/06 04:12:19;;;;;;;37.25;29.75;;;;;;;-0.65;nan;102422.00;5072359;28;20498;-53
2022/03/06 04:14:45;;;;;;;38.35;29.15;;;;;;;-0.22;nan;102491.75;5072478;28;20555;-54
2022/03/06 04:17:10;;;;;;;36.15;28.88;;;;;;;-0.28;nan;102495.81;5072205;28;20059;-53
2022/03/06 04:19:35;;;;;;;37.30;28.83;;;;;;;-0.40;nan;102483.28;5071288;28;20024;-54
2022/03/06 04:22:01;;;;;;;37.85;28.98;;;;;;;-0.54;nan;102462.88;5072190;28;20036;-56
2022/03/06 04:24:26;;;;;;;37.67;28.38;;;;;;;-0.38;nan;102497.16;5054453;28;20067;-52
2022/03/06 04:26:52;;;;;;;40.20;29.98;;;;;;;-0.84;nan;102411.75;5072006;28;20059;-52
2022/03/06 04:29:18;;;;;;;38.13;28.52;;;;;;;-0.54;nan;102491.34;5072012;28;20085;-50
2022/03/06 04:31:43;;;;;;;36.45;28.20;;;;;;;-0.92;nan;102440.72;5054270;28;20404;-52
2022/03/06 04:34:08;;;;;;;37.42;29.02;;;;;;;-0.64;nan;102509.06;5072355;28;20495;-54
2022/03/06 04:36:34;;;;;;;39.60;28.60;;;;;;;-0.77;nan;102500.78;5072266;28;20029;-51
2022/03/06 04:38:59;;;;;;;38.08;30.60;;;;;;;-0.76;nan;102516.34;5072032;28;20062;-55
2022/03/06 04:41:24;;;;;;;38.67;29.02;;;;;;;-0.79;nan;102528.28;5037426;28;20028;-54
2022/03/06 04:43:52;;;;;;;40.30;29.85;;;;;;;-0.88;nan;102521.03;5037605;28;20029;-52
2022/03/06 04:46:17;;;;;;;39.97;29.60;;;;;;;-0.86;nan;102523.69;5037851;28;20027;-52
2022/03/06 04:48:43;;;;;;;40.45;30.15;;;;;;;-0.90;nan;102521.78;5072331;28;20028;-56
2022/03/06 04:51:08;;;;;;;40.40;29.58;;;;;;;-0.84;nan;102522.03;5054308;28;20483;-56
2022/03/06 04:53:34;;;;;;;39.00;30.25;;;;;;;-1.29;nan;102462.50;5053895;28;20033;-55
2022/03/06 04:55:59;;;;;;;44.35;31.27;;;;;;;-0.90;nan;102533.00;5071896;28;20032;-53
2022/03/06 04:58:24;;;;;;;38.67;28.65;;;;;;;-1.27;nan;102475.47;5054195;28;20446;-54
2022/03/06 05:00:50;;;;;;;38.70;28.42;;;;;;;-1.27;nan;102478.94;5067903;28;20124;-57
2022/03/06 05:03:15;;;;;;;41.80;29.67;;;;;;;-1.05;nan;102523.75;5035793;28;20040;-53
2022/03/06 05:05:41;;;;;;;39.47;29.05;;;;;;;-0.92;nan;102546.69;5069290;28;20108;-53
2022/03/06 05:08:09;;;;;;;36.20;27.50;;;;;;;-1.08;nan;102526.22;5069025;28;20456;-53
2022/03/06 05:10:35;;;;;;;38.03;28.88;;;;;;;-1.40;nan;102480.97;5069734;28;20510;-54
2022/03/06 05:13:01;;;;;;;36.08;27.33;;;;;;;-1.04;nan;102551.34;5054113;28;20033;-52
2022/03/06 05:15:27;;;;;;;36.50;28.13;;;;;;;-1.43;nan;102478.25;5071930;28;20415;-52
2022/03/06 05:17:52;;;;;;;34.17;27.15;;;;;;;-1.41;nan;102485.22;5071959;28;20064;-52
2022/03/06 05:20:18;;;;;;;36.40;26.98;;;;;;;-1.04;nan;102554.81;5053785;28;20373;-51
2022/03/06 05:22:43;;;;;;;35.70;26.17;;;;;;;-0.93;nan;102547.50;5071721;28;20112;-54
2022/03/06 05:25:09;;;;;;;34.05;26.20;;;;;;;-0.93;nan;102557.84;5071676;28;20129;-53
2022/03/06 05:27:35;;;;;;;33.67;26.40;;;;;;;-1.01;nan;102538.56;5071477;28;20032;-51
2022/03/06 05:30:01;;;;;;;36.20;25.85;;;;;;;-1.30;nan;102488.25;5073265;28;20047;-55
2022/03/06 05:32:26;;;;;;;34.15;26.42;;;;;;;-1.03;nan;102547.94;5057575;28;20036;-57
2022/03/06 05:34:51;;;;;;;33.42;27.20;;;;;;;-1.01;nan;102559.22;5057414;28;20032;-55
2022/03/06 05:37:17;;;;;;;36.67;27.55;;;;;;;-1.04;nan;102565.16;5075275;28;20032;-53
2022/03/06 05:39:42;;;;;;;34.88;25.73;;;;;;;-1.06;nan;102566.81;5074961;28;20459;-54
2022/03/06 05:42:08;;;;;;;33.65;26.23;;;;;;;-1.21;nan;102525.69;5057315;28;20020;-54
2022/03/06 05:44:33;;;;;;;35.67;25.58;;;;;;;-1.00;nan;102556.72;5075566;28;20127;-55
2022/03/06 05:46:59;;;;;;;29.50;23.85;;;;;;;-1.40;nan;102496.44;5075380;28;20036;-53
2022/03/06 05:49:24;;;;;;;29.48;24.58;;;;;;;-1.26;nan;102501.38;5057375;28;20472;-56
2022/03/06 05:51:49;;;;;;;29.58;22.65;;;;;;;-0.85;nan;102572.00;5057582;28;20119;-51
2022/03/06 05:54:15;;;;;;;31.02;24.00;;;;;;;-0.89;nan;102581.31;5074948;28;20036;-54
2022/03/06 05:56:41;;;;;;;32.92;23.10;;;;;;;-0.79;nan;102592.94;5057433;28;20063;-55
2022/03/06 05:59:06;;;;;;;32.30;23.17;;;;;;;-1.22;nan;102502.38;5056977;28;20028;-56
2022/03/06 06:01:32;;;;;;;31.48;23.10;;;;;;;-1.18;nan;102509.44;5056925;28;20368;-53
2022/03/06 06:03:58;;;;;;;29.58;22.45;;;;;;;-0.77;nan;102584.41;5074856;28;20082;-57
2022/03/06 06:06:25;;;;;;;30.42;22.52;;;;;;;-1.08;nan;102528.78;5056867;28;20399;-57
2022/03/06 06:08:50;;;;;;;28.33;22.38;;;;;;;-0.75;nan;102598.28;5074628;28;20476;-54
2022/03/06 06:11:16;;;;;;;28.40;21.48;;;;;;;-0.74;nan;102605.22;5056980;28;20036;-57
2022/03/06 06:13:41;;;;;;;30.88;22.33;;;;;;;-0.86;nan;102575.38;5047743;28;20050;-53
2022/03/06 06:16:06;;;;;;;27.92;21.80;;;;;;;-1.08;nan;102536.56;5033662;28;20034;-54
2022/03/06 06:18:32;;;;;;;28.35;21.38;;;;;;;-0.76;nan;102616.31;5034776;28;20037;-54
2022/03/06 06:20:58;;;;;;;25.23;20.65;;;;;;;-0.73;nan;102613.88;5033543;28;20045;-51
2022/03/06 06:23:23;;;;;;;27.67;22.17;;;;;;;-1.16;nan;102539.69;5034425;28;20043;-54
2022/03/06 06:25:49;;;;;;;28.08;20.88;;;;;;;-0.69;nan;102621.81;5034743;28;20396;-52
2022/03/06 06:28:14;;;;;;;25.30;21.52;;;;;;;-0.69;nan;102620.91;5033425;28;20033;-53
2022/03/06 06:30:39;;;;;;;25.52;20.35;;;;;;;-1.12;nan;102558.78;5033392;28;20465;-57
2022/03/06 06:33:05;;;;;;;25.83;21.30;;;;;;;-0.67;nan;102619.25;5034449;28;20041;-55
2022/03/06 06:35:30;;;;;;;26.33;21.00;;;;;;;-0.90;nan;102589.88;5034147;28;20034;-55
2022/03/06 06:37:55;;;;;;;27.33;20.90;;;;;;;-0.73;nan;102614.72;5034237;28;20439;-52
2022/03/06 06:40:21;;;;;;;25.67;21.48;;;;;;;-0.59;nan;102636.00;5034443;28;20038;-51
2022/03/06 06:42:47;;;;;;;24.85;20.55;;;;;;;-0.53;nan;102627.59;5033320;28;20044;-53
2022/03/06 06:45:12;;;;;;;26.63;19.63;;;;;;;-0.53;nan;102636.25;5033991;28;20025;-52
2022/03/06 06:47:37;;;;;;;24.58;19.75;;;;;;;-0.49;nan;102622.59;5033991;28;20057;-54
2022/03/06 06:50:04;;;;;;;27.05;19.42;;;;;;;-0.46;nan;102614.09;5034414;28;20037;-56
2022/03/06 06:52:29;;;;;;;21.92;17.95;;;;;;;-0.45;nan;102614.16;5032551;28;20033;-59
2022/03/06 06:54:54;;;;;;;22.42;18.30;;;;;;;-0.65;nan;102586.59;5032954;28;20124;-56
2022/03/06 06:57:20;;;;;;;22.65;17.75;;;;;;;-0.32;nan;102651.78;5033925;28;20033;-55
2022/03/06 06:59:45;;;;;;;20.48;17.48;;;;;;;-0.50;nan;102601.88;5016237;28;20073;-55
2022/03/06 07:02:10;;;;;;;20.27;16.95;;;;;;;-0.57;nan;102580.03;5033980;28;20068;-50
2022/03/06 07:04:36;;;;;;;21.17;16.55;;;;;;;-0.05;nan;102669.28;5033741;28;20033;-54
2022/03/06 07:07:01;;;;;;;19.58;15.82;;;;;;;-0.37;nan;102604.09;5032388;28;20129;-53
2022/03/06 07:09:27;;;;;;;16.85;14.45;;;;;;;0.00;nan;102656.53;5032393;28;20033;-55
2022/03/06 07:11:52;;;;;;;17.73;14.50;;;;;;;0.10;nan;102662.94;5033452;28;20052;-55
2022/03/06 07:14:17;;;;;;;18.95;14.82;;;;;;;-0.21;nan;102609.09;5055255;28;20049;-54
2022/03/06 07:16:45;;;;;;;17.05;13.98;;;;;;;0.24;nan;102693.72;5073439;28;20024;-54
2022/03/06 07:19:11;;;;;;;18.67;14.93;;;;;;;0.38;nan;102686.50;5073505;28;20025;-56
2022/03/06 07:21:37;;;;;;;14.32;12.35;;;;;;;0.51;nan;102686.13;5055605;28;20086;-55
2022/03/06 07:24:06;;;;;;;14.55;12.80;;;;;;;0.67;nan;102698.84;5055664;28;20115;-56
2022/03/06 07:26:31;;;;;;;15.25;12.73;;;;;;;0.66;nan;102668.56;5073300;28;20127;-51
2022/03/06 07:28:57;;;;;;;15.35;11.35;;;;;;;0.59;nan;102643.22;5073355;28;20166;-53
2022/03/06 07:31:22;;;;;;;13.63;12.13;;;;;;;0.93;nan;102690.31;5073171;28;20578;-52
2022/03/06 07:33:47;;;;;;;13.82;11.77;;;;;;;1.28;nan;102719.19;5073249;28;20033;-51
2022/03/06 07:36:13;;;;;;;14.35;10.70;;;;;;;1.40;nan;102723.09;5072969;28;20459;-51
2022/03/06 07:38:38;;;;;;;10.98;9.82;;;;;;;1.55;nan;102722.72;5055104;28;20103;-55
2022/03/06 07:41:04;;;;;;;12.13;9.20;;;;;;;1.78;nan;102731.31;5073066;28;20032;-57
2022/03/06 07:43:29;;;;;;;10.38;8.40;;;;;;;1.97;nan;102728.47;5073114;28;20044;-53
2022/03/06 07:45:55;;;;;;;10.40;8.90;;;;;;;1.81;nan;102662.16;5072956;28;20170;-52
2022/03/06 07:48:21;;;;;;;12.32;8.90;;;;;;;2.50;nan;102736.25;5055279;28;20085;-54
2022/03/06 07:50:47;;;;;;;9.55;8.35;;;;;;;2.70;nan;102739.44;5072696;28;20066;-55
2022/03/06 07:53:12;;;;;;;9.45;7.47;;;;;;;2.32;nan;102696.72;5054586;28;20044;-53
2022/03/06 07:55:37;;;;;;;10.45;6.95;;;;;;;2.52;nan;102737.19;5072746;28;20487;-52
2022/03/06 07:58:03;;;;;;;8.93;7.20;;;;;;;2.60;nan;102742.59;5072597;28;20120;-55
2022/03/06 08:00:28;;;;;;;8.35;6.68;;;;;;;2.52;nan;102744.97;5072492;28;20086;-54
2022/03/06 08:02:56;;;;;;;11.10;7.35;;;;;;;2.62;nan;102743.56;5072597;28;20043;-55
2022/03/06 08:05:21;;;;;;;9.95;6.95;;;;;;;2.80;nan;102752.75;5072469;28;20467;-52
2022/03/06 08:07:46;;;;;;;7.55;6.65;;;;;;;3.16;nan;102762.47;5072319;28;20055;-55
2022/03/06 08:10:12;;;;;;;9.13;7.05;;;;;;;3.48;nan;102772.06;5072499;28;20555;-53
2022/03/06 08:12:37;;;;;;;8.85;6.65;;;;;;;3.65;nan;102728.25;5071207;28;20036;-53
2022/03/06 08:15:03;;;;;;;7.68;6.22;;;;;;;4.27;nan;102784.53;5072369;28;20093;-54
2022/03/06 08:17:29;;;;;;;7.38;6.32;;;;;;;4.29;nan;102785.47;5071018;28;20083;-55
2022/03/06 08:19:54;;;;;;;6.57;5.78;;;;;;;4.01;nan;102738.69;5072352;28;20084;-51
2022/03/06 08:22:23;;;;;;;6.43;5.70;;;;;;;4.45;nan;102784.97;5072214;28;20039;-52
2022/03/06 08:24:49;;;;;;;8.32;6.10;;;;;;;4.15;nan;102764.25;5071290;28;20029;-53
2022/03/06 08:27:14;;;;;;;7.03;5.72;;;;;;;4.13;nan;102759.84;5071112;28;20025;-51
2022/03/06 08:29:39;;;;;;;5.95;5.30;;;;;;;4.21;nan;102725.31;5054476;28;20032;-58
2022/03/06 08:32:05;;;;;;;6.78;5.35;;;;;;;5.04;nan;102789.81;5054180;28;20039;-55
2022/03/06 08:34:31;;;;;;;7.97;5.18;;;;;;;5.32;nan;102806.00;5072078;28;20513;-55
2022/03/06 08:36:56;;;;;;;7.30;4.90;;;;;;;5.53;nan;102752.47;5072106;28;20043;-55
2022/03/06 08:39:22;;;;;;;5.43;4.70;;;;;;;6.21;nan;102812.97;5054227;28;20032;-57
2022/03/06 08:41:47;;;;;;;5.63;4.85;;;;;;;6.55;nan;102803.91;5068103;28;20047;-53
2022/03/06 08:44:12;;;;;;;6.32;5.40;;;;;;;5.87;nan;102761.81;5062687;28;20032;-52
2022/03/06 08:46:38;;;;;;;4.72;4.32;;;;;;;6.29;nan;102816.59;5052002;28;20039;-51
2022/03/06 08:49:03;;;;;;;7.25;4.43;;;;;;;6.90;nan;102820.13;5063708;28;20626;-59
2022/03/06 08:51:29;;;;;;;6.38;5.03;;;;;;;6.78;nan;102823.44;5071299;28;20032;-55
2022/03/06 08:53:54;;;;;;;7.07;4.68;;;;;;;6.63;nan;102755.19;5071598;28;20033;-56
2022/03/06 08:56:19;;;;;;;6.93;5.00;;;;;;;6.80;nan;102751.94;5071930;28;20032;-55
2022/03/06 08:58:45;;;;;;;6.07;4.55;;;;;;;6.97;nan;102791.44;5036784;28;20472;-55
2022/03/06 09:01:10;;;;;;;6.95;4.70;;;;;;;7.15;nan;102840.56;5051697;28;20559;-56
2022/03/06 09:03:35;;;;;;;4.38;3.97;;;;;;;7.35;nan;102829.47;5033760;28;20499;-51
2022/03/06 09:06:01;;;;;;;6.47;4.65;;;;;;;7.61;nan;102829.78;5054773;28;20427;-54
2022/03/06 09:08:26;;;;;;;6.60;4.22;;;;;;;6.98;nan;102756.53;5056455;28;20033;-55
2022/03/06 09:10:52;;;;;;;6.75;4.00;;;;;;;7.02;nan;102817.69;5066474;28;20038;-54
2022/03/06 09:13:17;;;;;;;7.10;3.63;;;;;;;7.34;nan;102787.53;5075161;28;20036;-55
2022/03/06 09:15:43;;;;;;;6.10;3.53;;;;;;;7.08;nan;102836.97;5075781;28;20033;-57
2022/03/06 09:18:08;;;;;;;4.88;3.42;;;;;;;7.07;nan;102785.47;5066071;28;20040;-53
2022/03/06 09:20:33;;;;;;;6.55;3.88;;;;;;;7.56;nan;102768.56;5055468;28;20037;-58
2022/03/06 09:22:59;;;;;;;3.95;3.22;;;;;;;7.65;nan;102773.91;5055822;28;20388;-54
2022/03/06 09:25:24;;;;;;;5.45;3.80;;;;;;;8.16;nan;102830.34;5055388;28;20476;-55
2022/03/06 09:27:50;;;;;;;5.22;3.97;;;;;;;8.35;nan;102788.56;5036893;28;20075;-53
2022/03/06 09:30:15;;;;;;;4.30;3.38;;;;;;;8.68;nan;102834.28;5020914;28;20041;-55
2022/03/06 09:32:41;;;;;;;4.38;3.13;;;;;;;8.98;nan;102777.59;5054255;28;20036;-52
2022/03/06 09:35:08;;;;;;;5.85;4.05;;;;;;;9.11;nan;102838.09;5057304;28;20563;-53
2022/03/06 09:37:33;;;;;;;5.78;3.83;;;;;;;9.56;nan;102839.16;5041791;28;20120;-53
2022/03/06 09:39:59;;;;;;;5.38;3.72;;;;;;;9.98;nan;102833.13;5054724;28;20067;-53
2022/03/06 09:42:25;;;;;;;5.45;3.92;;;;;;;10.09;nan;102843.69;5066597;28;20037;-55
2022/03/06 09:44:50;;;;;;;5.35;3.47;;;;;;;10.04;nan;102841.03;5074679;28;20040;-53
2022/03/06 09:47:16;;;;;;;6.15;3.60;;;;;;;10.31;nan;102771.78;5074860;28;20036;-54
2022/03/06 09:49:46;;;;;;;5.45;4.13;;;;;;;10.60;nan;102833.19;5056260;28;20064;-56
2022/03/06 09:52:12;;;;;;;4.25;3.85;;;;;;;9.62;nan;102827.78;5056948;28;20232;-51
2022/03/06 09:54:37;;;;;;;7.35;4.03;;;;;;;9.53;nan;102817.25;5074188;28;20171;-54
2022/03/06 09:57:04;;;;;;;7.53;3.72;;;;;;;8.92;nan;102769.69;5072475;28;20059;-52
2022/03/06 09:59:31;;;;;;;4.78;3.65;;;;;;;9.16;nan;102742.66;5068883;28;20818;-52
2022/03/06 10:02:04;;;;;;;7.70;4.35;;;;;;;8.45;nan;102777.28;5057389;28;20037;-56
2022/03/06 10:04:32;;;;;;;4.68;4.03;;;;;;;8.79;nan;102801.09;5055103;28;20025;-57
2022/03/06 10:07:00;;;;;;;4.25;3.85;;;;;;;9.48;nan;102835.63;5058337;28;20511;-52
2022/03/06 10:09:26;;;;;;;4.97;3.35;;;;;;;9.97;nan;102831.38;5053646;28;20492;-52
2022/03/06 10:11:54;;;;;;;4.10;3.70;;;;;;;10.04;nan;102777.03;5065566;28;20032;-54
2022/03/06 10:14:41;;;;;;;4.35;3.55;;;;;;;10.42;nan;102824.44;5072497;28;20044;-58
2022/03/06 10:17:18;;;;;;;3.95;3.35;;;;;;;9.43;nan;102784.78;5072916;28;20031;-54
2022/03/06 10:19:53;;;;;;;4.03;3.72;;;;;;;10.04;nan;102842.81;5074257;28;20028;-58
2022/03/06 10:22:23;;;;;;;5.82;4.10;;;;;;;10.01;nan;102835.75;5057319;28;20029;-52
2022/03/06 10:25:16;;;;;;;4.70;3.53;;;;;;;9.39;nan;102838.22;5054461;28;20447;-54
2022/03/06 10:27:46;;;;;;;4.13;3.72;;;;;;;9.75;nan;102844.47;5045222;28;20091;-56
2022/03/06 10:30:22;;;;;;;4.82;3.50;;;;;;;9.36;nan;102725.19;5054302;28;20124;-55
2022/03/06 10:32:47;;;;;;;6.07;3.75;;;;;;;10.56;nan;102784.06;5036300;28;20041;-57
2022/03/06 10:35:12;;;;;;;5.82;4.28;;;;;;;10.72;nan;102862.16;5054130;28;20044;-57
2022/03/06 10:37:38;;;;;;;4.35;3.95;;;;;;;10.04;nan;102834.91;5053940;28;20033;-55
2022/03/06 10:40:04;;;;;;;5.35;3.65;;;;;;;9.83;nan;102808.56;5054632;28;20056;-58
2022/03/06 10:42:29;;;;;;;3.45;3.10;;;;;;;10.50;nan;102836.72;5054199;28;20122;-54
2022/03/06 10:44:54;;;;;;;5.90;3.78;;;;;;;10.80;nan;102856.00;5054143;28;20048;-52
2022/03/06 10:47:20;;;;;;;4.68;3.50;;;;;;;10.47;nan;102789.31;5036372;28;20037;-50
2022/03/06 10:50:04;;;;;;;6.88;4.68;;;;;;;10.96;nan;102836.63;5054008;28;20033;-53
2022/03/06 10:52:29;;;;;;;6.15;4.03;;;;;;;9.90;nan;102789.25;5053547;28;20111;-55
2022/03/06 10:54:56;;;;;;;5.00;4.18;;;;;;;9.78;nan;102802.41;5052673;28;20124;-59
2022/03/06 10:57:22;;;;;;;4.57;4.18;;;;;;;10.12;nan;102859.47;5066320;28;20075;-56
2022/03/06 10:59:49;;;;;;;5.85;4.30;;;;;;;10.11;nan;102784.03;5075715;28;20047;-56
2022/03/06 11:02:15;;;;;;;4.68;4.20;;;;;;;11.07;nan;102780.38;5078563;28;20028;-58
2022/03/06 11:04:43;;;;;;;4.95;4.07;;;;;;;11.19;nan;102843.59;5065652;28;20037;-52
2022/03/06 11:07:08;;;;;;;4.20;3.80;;;;;;;11.35;nan;102782.91;5038681;28;20033;-53
2022/03/06 11:09:35;;;;;;;5.50;4.90;;;;;;;11.84;nan;102842.47;5084778;28;20029;-54
2022/03/06 11:12:01;;;;;;;7.00;4.70;;;;;;;11.74;nan;102774.78;5055296;28;20040;-57
2022/03/06 11:14:26;;;;;;;5.00;4.55;;;;;;;12.21;nan;102822.84;5070721;28;20109;-56
2022/03/06 11:16:52;;;;;;;4.95;4.18;;;;;;;12.38;nan;102839.44;5082292;28;20032;-57
2022/03/06 11:19:17;;;;;;;5.13;4.65;;;;;;;12.15;nan;102838.72;5059809;28;20044;-55
2022/03/06 11:21:44;;;;;;;5.50;4.03;;;;;;;11.57;nan;102837.28;5089440;28;20032;-54
2022/03/06 11:24:13;;;;;;;4.55;4.00;;;;;;;11.73;nan;102847.78;5059556;28;20039;-55
2022/03/06 11:26:57;;;;;;;5.00;3.80;;;;;;;11.65;nan;102846.91;5066968;28;20479;-54
2022/03/06 11:29:37;;;;;;;5.18;3.80;;;;;;;12.13;nan;102855.47;5082012;28;20392;-49